Malmesbury, United Kingdom
Current Conditions -  °F | °C
As of 2:58 PM on Monday 22 Dec 2014 (Local Time) from EGVA Reporting Station
Overcast Overcast  
Wind Chill: 53°   Ceiling: 1500
Heat Index: 53°   Visibility: 6mi
Dew Point: 48°   Wind: 28mph
Humidity: 85%   Direction: 250°WSW
Pressure: 30.03"   Gusts: 37mph
Location:  51.58°N, 2.1°W
Report Text: EGVA 221458Z AUTO 25024G32KT 9999 OVC015 12/09 A3003 RMK AO2 PK WND 25032/51 SLP173 T01150090 56005
Loading
Personal Weather Stations






























Interactive Weather Map New forecast layout! Learn more

10-Day Weather Forecast

Advertisements
Track Severe Weather on mobile